Time;durP1;ratioP1;P1;durP2;ratioP2;P2;SDS_P1;SDS_P2;PMS_P1;PMS_P2;Temp;Humidity;BMP_temperature;BMP_pressure;BME280_temperature;BME280_humidity;BME280_pressure;Samples;Min_cycle;Max_cycle;Signal;HPM_P1;HPM_P2
2022/07/16 00:01:51;;;;;;;2.67;1.90;;;18.60;53.40;;;;;;5053757;28;20039;-63
2022/07/16 00:04:17;;;;;;;3.15;2.03;;;18.60;53.50;;;;;;5057261;28;20033;-63
2022/07/16 00:06:43;;;;;;;2.35;2.00;;;18.60;53.60;;;;;;5053083;28;20045;-64
2022/07/16 00:09:10;;;;;;;5.28;2.53;;;18.60;53.70;;;;;;5055117;28;20044;-63
2022/07/16 00:11:36;;;;;;;3.10;2.35;;;18.60;53.80;;;;;;5056908;28;20043;-66
2022/07/16 00:14:01;;;;;;;3.13;2.30;;;18.50;54.00;;;;;;5056481;28;20029;-63
2022/07/16 00:16:27;;;;;;;2.58;2.25;;;18.50;54.10;;;;;;5054264;28;20045;-63
2022/07/16 00:21:37;;;;;;;2.50;2.20;;;18.40;54.10;;;;;;5054279;28;20040;-63
2022/07/16 00:24:05;;;;;;;2.70;2.15;;;18.40;54.10;;;;;;5056030;28;20037;-62
2022/07/16 00:26:30;;;;;;;6.47;2.17;;;18.30;54.20;;;;;;5054221;28;20051;-63
2022/07/16 00:28:56;;;;;;;4.50;2.15;;;18.30;54.40;;;;;;5054291;28;20041;-63
2022/07/16 00:31:22;;;;;;;3.22;2.20;;;18.20;55.10;;;;;;5055559;28;20496;-64
2022/07/16 00:33:47;;;;;;;3.10;2.15;;;18.20;54.60;;;;;;5055394;28;20036;-63
2022/07/16 00:36:13;;;;;;;3.00;2.15;;;18.10;54.70;;;;;;5054384;28;20119;-63
2022/07/16 00:38:39;;;;;;;3.67;2.15;;;18.00;54.80;;;;;;5054040;28;20037;-63
2022/07/16 00:41:04;;;;;;;3.03;2.15;;;18.00;55.00;;;;;;5055015;28;20090;-63
2022/07/16 00:43:30;;;;;;;4.35;2.70;;;17.90;55.00;;;;;;5055926;28;20472;-63
2022/07/16 00:45:55;;;;;;;3.05;2.25;;;17.90;55.20;;;;;;5052550;28;20032;-63
2022/07/16 00:48:21;;;;;;;2.67;2.40;;;17.80;55.30;;;;;;5055193;28;20482;-62
2022/07/16 00:50:47;;;;;;;3.53;2.08;;;17.70;55.40;;;;;;5055667;28;20032;-64
2022/07/16 00:53:12;;;;;;;2.20;2.00;;;17.60;55.60;;;;;;5052760;28;20411;-62
2022/07/16 00:55:38;;;;;;;5.50;2.28;;;17.60;55.80;;;;;;5052366;28;20040;-63
2022/07/16 00:58:04;;;;;;;2.80;2.60;;;17.60;56.00;;;;;;5053643;28;20090;-65
2022/07/16 01:00:30;;;;;;;4.07;2.17;;;17.60;56.20;;;;;;5055385;28;20037;-61
2022/07/16 01:02:57;;;;;;;2.20;2.05;;;17.60;56.20;;;;;;5055270;28;20391;-64
2022/07/16 01:05:23;;;;;;;2.58;2.33;;;17.60;56.20;;;;;;5053770;28;20057;-63
2022/07/16 01:07:49;;;;;;;2.53;2.00;;;17.60;56.20;;;;;;5051733;28;20137;-62
2022/07/16 01:10:18;;;;;;;2.08;1.98;;;17.60;56.00;;;;;;5052110;28;20052;-61
2022/07/16 01:12:44;;;;;;;4.72;2.17;;;17.60;56.00;;;;;;5051381;28;20029;-63
2022/07/16 01:15:11;;;;;;;2.65;2.20;;;17.70;56.00;;;;;;5054710;28;20401;-60
2022/07/16 01:17:37;;;;;;;2.22;2.10;;;17.70;56.00;;;;;;5052716;28;20044;-63
2022/07/16 01:20:03;;;;;;;2.55;2.13;;;17.70;56.10;;;;;;5054463;28;20538;-62
2022/07/16 01:22:28;;;;;;;5.13;2.10;;;17.70;56.10;;;;;;5053585;28;20037;-63
2022/07/16 01:24:54;;;;;;;2.30;1.95;;;17.70;56.00;;;;;;5053702;28;20036;-64
2022/07/16 01:27:20;;;;;;;2.42;2.22;;;17.70;56.10;;;;;;5054173;28;20127;-63
2022/07/16 01:29:47;;;;;;;3.70;2.28;;;17.60;56.00;;;;;;5052117;28;20029;-63
2022/07/16 01:32:12;;;;;;;3.60;2.22;;;17.60;56.00;;;;;;5051683;28;20102;-62
2022/07/16 01:34:38;;;;;;;3.25;2.15;;;17.50;56.00;;;;;;5055226;28;20025;-63
2022/07/16 01:37:09;;;;;;;7.47;2.50;;;17.40;55.90;;;;;;5051753;28;20036;-63
2022/07/16 01:39:37;;;;;;;2.70;2.50;;;17.40;57.10;;;;;;5052891;28;20055;-63
2022/07/16 01:42:05;;;;;;;2.58;2.38;;;17.30;56.20;;;;;;5056854;28;20120;-61
2022/07/16 01:44:34;;;;;;;3.55;2.28;;;17.20;56.50;;;;;;5056572;28;20393;-62
2022/07/16 01:47:01;;;;;;;3.08;2.55;;;17.10;56.40;;;;;;5056607;28;20400;-63
2022/07/16 01:49:35;;;;;;;2.42;2.22;;;17.00;56.70;;;;;;5053322;28;20044;-61
2022/07/16 01:52:14;;;;;;;3.28;2.20;;;16.90;57.20;;;;;;5052095;28;20503;-62
2022/07/16 01:54:57;;;;;;;2.50;2.30;;;16.90;57.40;;;;;;5053572;28;20075;-63
2022/07/16 01:57:23;;;;;;;3.13;2.50;;;16.80;57.70;;;;;;5053258;28;20584;-63
2022/07/16 01:59:49;;;;;;;2.63;2.20;;;16.70;57.10;;;;;;5050775;28;20090;-61
2022/07/16 02:02:15;;;;;;;4.03;2.22;;;16.70;57.20;;;;;;5052320;28;20044;-61
2022/07/16 02:04:41;;;;;;;3.53;2.53;;;16.60;57.50;;;;;;5047918;28;20044;-63
2022/07/16 02:07:07;;;;;;;2.63;2.30;;;16.50;57.70;;;;;;5053887;28;20043;-61
2022/07/16 02:09:34;;;;;;;3.65;2.25;;;16.50;57.90;;;;;;5053368;28;20040;-63
2022/07/16 02:12:00;;;;;;;3.63;2.40;;;16.50;58.70;;;;;;5051550;28;20045;-61
2022/07/16 02:14:25;;;;;;;3.58;2.50;;;16.50;58.10;;;;;;5054764;28;20118;-60
2022/07/16 02:16:51;;;;;;;6.00;2.85;;;16.50;58.10;;;;;;5054375;28;20040;-61
2022/07/16 02:19:17;;;;;;;5.13;3.00;;;16.60;58.20;;;;;;5051382;28;20045;-61
2022/07/16 02:21:42;;;;;;;3.00;2.55;;;16.60;58.10;;;;;;5052430;28;20041;-59
2022/07/16 02:24:08;;;;;;;3.15;2.78;;;16.60;58.00;;;;;;5052973;28;20408;-62
2022/07/16 02:26:34;;;;;;;5.05;2.88;;;16.60;57.80;;;;;;5051795;28;20722;-61
2022/07/16 02:29:00;;;;;;;3.50;2.65;;;16.60;57.70;;;;;;5052905;28;20119;-62
2022/07/16 02:31:25;;;;;;;5.25;2.80;;;16.60;57.80;;;;;;5050450;28;20041;-60
2022/07/16 02:33:51;;;;;;;2.78;2.58;;;16.60;57.80;;;;;;5051916;28;20041;-64
2022/07/16 02:36:17;;;;;;;2.90;2.60;;;16.50;57.80;;;;;;5051000;28;20059;-60
2022/07/16 02:38:42;;;;;;;2.70;2.50;;;16.50;57.90;;;;;;5053238;28;20086;-63
2022/07/16 02:41:08;;;;;;;2.63;2.42;;;16.40;58.00;;;;;;5049331;28;20383;-62
2022/07/16 02:43:33;;;;;;;3.47;2.75;;;16.40;58.10;;;;;;5053376;28;20040;-60
2022/07/16 02:45:59;;;;;;;4.13;2.40;;;16.30;58.10;;;;;;5050898;28;20036;-62
2022/07/16 02:48:25;;;;;;;2.92;2.63;;;16.30;58.20;;;;;;5053166;28;20163;-62
2022/07/16 02:50:50;;;;;;;3.70;2.63;;;16.30;58.30;;;;;;5050184;28;20033;-60
2022/07/16 02:53:16;;;;;;;3.08;2.65;;;16.30;58.30;;;;;;5050145;28;20033;-61
2022/07/16 02:55:41;;;;;;;3.45;2.50;;;16.20;58.30;;;;;;5051686;28;20025;-62
2022/07/16 02:58:07;;;;;;;2.95;2.30;;;16.30;58.40;;;;;;5051376;28;20569;-63
2022/07/16 03:00:33;;;;;;;3.13;2.42;;;16.30;58.40;;;;;;5051351;28;20044;-62
2022/07/16 03:02:58;;;;;;;2.85;2.50;;;16.30;58.30;;;;;;5050764;28;20120;-62
2022/07/16 03:05:24;;;;;;;2.75;2.55;;;16.40;58.30;;;;;;5050818;28;20045;-63
2022/07/16 03:07:50;;;;;;;2.90;2.47;;;16.40;58.30;;;;;;5052733;28;20482;-62
2022/07/16 03:10:16;;;;;;;2.90;2.70;;;16.40;58.30;;;;;;5051491;28;20029;-63
2022/07/16 03:12:42;;;;;;;3.22;2.40;;;16.40;58.20;;;;;;5050980;28;20055;-60
2022/07/16 03:15:11;;;;;;;3.22;2.63;;;16.40;58.10;;;;;;5050185;28;20044;-62
2022/07/16 03:17:36;;;;;;;4.78;2.60;;;16.50;58.00;;;;;;5053053;28;20557;-62
2022/07/16 03:20:02;;;;;;;3.25;2.38;;;16.50;57.90;;;;;;5052622;28;20082;-62
2022/07/16 03:22:28;;;;;;;2.67;2.40;;;16.40;58.00;;;;;;5050299;28;20473;-60
2022/07/16 03:24:53;;;;;;;6.60;2.63;;;16.40;58.00;;;;;;5051655;28;20029;-61
2022/07/16 03:27:19;;;;;;;2.78;2.58;;;16.40;58.00;;;;;;5051261;28;20033;-63
2022/07/16 03:29:45;;;;;;;2.97;2.70;;;16.40;58.00;;;;;;5052716;28;20064;-62
2022/07/16 03:32:10;;;;;;;2.83;2.63;;;16.40;58.00;;;;;;5052193;28;20149;-63
2022/07/16 03:34:36;;;;;;;5.00;2.90;;;16.40;58.00;;;;;;5052547;28;20177;-61
2022/07/16 03:37:02;;;;;;;3.20;2.90;;;16.40;58.00;;;;;;5050252;28;20033;-62
2022/07/16 03:39:27;;;;;;;4.22;2.90;;;16.40;58.00;;;;;;5054315;28;20159;-62
2022/07/16 03:41:53;;;;;;;4.03;2.70;;;16.40;57.90;;;;;;5051508;28;20082;-62
2022/07/16 03:44:19;;;;;;;3.30;2.97;;;16.30;57.90;;;;;;5050540;28;20508;-62
2022/07/16 03:46:44;;;;;;;2.78;2.58;;;16.20;57.90;;;;;;5051784;28;20079;-61
2022/07/16 03:49:10;;;;;;;3.00;2.80;;;16.20;58.10;;;;;;5052442;28;20048;-63
2022/07/16 03:51:36;;;;;;;3.53;2.80;;;16.10;58.30;;;;;;5053505;28;20048;-63
2022/07/16 03:54:03;;;;;;;2.80;2.60;;;16.10;58.30;;;;;;5047737;28;20062;-62
2022/07/16 03:56:29;;;;;;;3.28;2.60;;;16.00;58.40;;;;;;5056422;28;20037;-62
2022/07/16 03:58:55;;;;;;;4.25;3.03;;;16.10;58.60;;;;;;5057212;28;20445;-62
2022/07/16 04:01:21;;;;;;;3.15;2.85;;;16.10;58.50;;;;;;5055756;28;20566;-62
2022/07/16 04:03:46;;;;;;;2.67;2.47;;;16.10;58.50;;;;;;5055648;28;20029;-62
2022/07/16 04:06:12;;;;;;;4.10;2.72;;;16.00;58.70;;;;;;5054295;28;20045;-61
2022/07/16 04:08:38;;;;;;;4.78;2.63;;;16.00;58.80;;;;;;5054065;28;20037;-62
2022/07/16 04:11:04;;;;;;;3.60;2.90;;;15.90;58.80;;;;;;5052312;28;20074;-62
2022/07/16 04:13:29;;;;;;;3.22;2.92;;;15.90;58.90;;;;;;5053551;28;20512;-62
2022/07/16 04:15:55;;;;;;;3.08;2.65;;;15.90;59.00;;;;;;5056471;28;20025;-63
2022/07/16 04:18:21;;;;;;;7.28;3.05;;;15.80;59.10;;;;;;5052782;28;20501;-61
2022/07/16 04:20:47;;;;;;;3.47;3.17;;;15.70;59.30;;;;;;5053964;28;20103;-64
2022/07/16 04:23:13;;;;;;;3.20;2.90;;;15.60;59.30;;;;;;5051928;28;20124;-63
2022/07/16 04:25:38;;;;;;;3.10;2.75;;;15.60;59.60;;;;;;5055075;28;20154;-63
2022/07/16 04:28:04;;;;;;;4.45;3.08;;;15.50;59.90;;;;;;5052701;28;20460;-62
2022/07/16 04:30:31;;;;;;;4.03;2.65;;;15.40;60.00;;;;;;5053051;28;20047;-62
2022/07/16 04:32:56;;;;;;;3.53;2.90;;;15.30;60.30;;;;;;5052700;28;20029;-62
2022/07/16 04:35:22;;;;;;;2.80;2.60;;;15.30;60.60;;;;;;5054692;28;20089;-63
2022/07/16 04:37:48;;;;;;;3.17;2.75;;;15.30;60.80;;;;;;5053314;28;20072;-62
2022/07/16 04:40:14;;;;;;;4.03;3.15;;;15.20;60.90;;;;;;5053485;28;20144;-60
2022/07/16 04:42:41;;;;;;;4.55;3.00;;;15.20;61.20;;;;;;5052239;28;20037;-61
2022/07/16 04:45:08;;;;;;;4.25;3.40;;;15.20;61.50;;;;;;5054912;28;20147;-60
2022/07/16 04:47:34;;;;;;;3.85;3.45;;;15.20;61.60;;;;;;5056298;28;20036;-62
2022/07/16 04:50:00;;;;;;;5.65;3.33;;;15.20;61.60;;;;;;5054219;28;20248;-62
2022/07/16 04:52:27;;;;;;;5.50;3.58;;;15.20;61.70;;;;;;5052431;28;20090;-61
2022/07/16 04:54:52;;;;;;;3.70;3.30;;;15.20;61.90;;;;;;5054346;28;20029;-63
2022/07/16 04:57:18;;;;;;;6.60;3.53;;;15.20;62.10;;;;;;5056138;28;20043;-61
2022/07/16 04:59:44;;;;;;;4.15;3.17;;;15.20;62.10;;;;;;5056170;28;20033;-60
2022/07/16 05:04:54;;;;;;;4.30;3.73;;;15.20;62.60;;;;;;5052635;28;20051;-60
2022/07/16 05:07:19;;;;;;;5.88;3.80;;;15.20;62.50;;;;;;5056870;28;20579;-62
2022/07/16 05:09:45;;;;;;;4.32;3.28;;;15.20;62.60;;;;;;5053305;28;20150;-61
2022/07/16 05:12:10;;;;;;;5.07;3.45;;;15.20;62.50;;;;;;5051854;28;20036;-62
2022/07/16 05:14:36;;;;;;;3.63;3.17;;;15.30;62.70;;;;;;5052117;28;20039;-62
2022/07/16 05:17:02;;;;;;;4.32;3.42;;;15.30;62.70;;;;;;5051652;28;20031;-63
2022/07/16 05:19:27;;;;;;;5.82;3.50;;;15.40;62.90;;;;;;5054248;28;20110;-61
2022/07/16 05:21:53;;;;;;;3.90;3.50;;;15.40;62.90;;;;;;5053451;28;20060;-63
2022/07/16 05:24:18;;;;;;;4.22;3.80;;;15.50;62.80;;;;;;5049667;28;20044;-61
2022/07/16 05:26:44;;;;;;;3.35;3.00;;;15.50;62.60;;;;;;5051832;28;20045;-63
2022/07/16 05:29:09;;;;;;;4.78;3.55;;;15.70;62.60;;;;;;5052091;28;20095;-60
2022/07/16 05:31:35;;;;;;;3.70;3.35;;;15.70;62.50;;;;;;5053321;28;20492;-63
2022/07/16 05:34:01;;;;;;;3.88;3.50;;;15.80;62.40;;;;;;5052027;28;20040;-64
2022/07/16 05:36:26;;;;;;;5.10;3.13;;;15.90;62.00;;;;;;5051009;28;20423;-63
2022/07/16 05:38:52;;;;;;;4.38;3.45;;;16.00;61.90;;;;;;5055666;28;20036;-62
2022/07/16 05:41:17;;;;;;;3.58;3.28;;;16.20;61.90;;;;;;5052838;28;20028;-63
2022/07/16 05:43:43;;;;;;;4.28;3.47;;;16.30;61.80;;;;;;5053727;28;20583;-61
2022/07/16 05:46:09;;;;;;;5.00;3.33;;;16.40;61.70;;;;;;5052165;28;20119;-61
2022/07/16 05:48:34;;;;;;;5.50;3.70;;;16.50;61.30;;;;;;5052236;28;20037;-63
2022/07/16 05:51:00;;;;;;;5.95;3.40;;;16.70;61.30;;;;;;5052678;28;20484;-63
2022/07/16 05:53:26;;;;;;;4.65;3.50;;;16.70;61.00;;;;;;5054046;28;20055;-61
2022/07/16 05:55:51;;;;;;;4.43;3.10;;;16.90;60.50;;;;;;5052469;28;20052;-63
2022/07/16 05:58:17;;;;;;;5.55;3.25;;;17.00;60.10;;;;;;5050822;28;20054;-61
2022/07/16 06:00:42;;;;;;;5.35;3.50;;;17.20;59.80;;;;;;5052149;28;20522;-62
2022/07/16 06:03:08;;;;;;;4.40;3.20;;;17.30;59.50;;;;;;5051703;28;20071;-60
2022/07/16 06:05:34;;;;;;;4.45;2.97;;;17.30;59.20;;;;;;5052433;28;20045;-62
2022/07/16 06:08:00;;;;;;;5.45;2.90;;;17.50;59.10;;;;;;5054172;28;20040;-62
2022/07/16 06:10:26;;;;;;;5.00;2.92;;;17.60;59.00;;;;;;5050545;28;20250;-60
2022/07/16 06:12:52;;;;;;;4.43;3.22;;;17.70;58.90;;;;;;5052294;28;20029;-62
2022/07/16 06:15:17;;;;;;;6.55;3.25;;;17.80;58.60;;;;;;5055772;28;20032;-63
2022/07/16 06:17:43;;;;;;;5.45;3.22;;;17.90;58.50;;;;;;5053943;28;20029;-60
2022/07/16 06:20:10;;;;;;;6.43;3.00;;;17.90;58.20;;;;;;5055158;28;20056;-63
2022/07/16 06:22:36;;;;;;;3.08;2.78;;;18.00;58.00;;;;;;5050767;28;20035;-63
2022/07/16 06:25:02;;;;;;;3.97;2.75;;;18.20;58.00;;;;;;5051428;28;20064;-62
2022/07/16 06:27:28;;;;;;;4.05;2.65;;;18.20;57.90;;;;;;5051668;28;20140;-61
2022/07/16 06:29:54;;;;;;;3.15;2.63;;;18.30;58.00;;;;;;5053537;28;20159;-62
2022/07/16 06:32:19;;;;;;;2.65;2.45;;;18.50;57.70;;;;;;5053280;28;21917;-62
2022/07/16 06:34:45;;;;;;;4.05;2.30;;;18.50;57.40;;;;;;5056616;28;20029;-63
2022/07/16 06:37:10;;;;;;;2.50;2.28;;;18.70;56.80;;;;;;5057184;28;20036;-62
2022/07/16 06:39:36;;;;;;;3.95;2.63;;;18.80;56.60;;;;;;5055393;28;20032;-62
2022/07/16 06:42:02;;;;;;;2.60;2.38;;;18.90;56.40;;;;;;5052183;28;20504;-62
2022/07/16 06:44:27;;;;;;;4.60;2.72;;;18.90;56.20;;;;;;5051459;28;20036;-60
2022/07/16 06:46:53;;;;;;;3.00;2.33;;;19.10;56.10;;;;;;5053597;28;20120;-63
2022/07/16 06:49:19;;;;;;;3.40;2.50;;;19.10;56.20;;;;;;5052064;28;20063;-62
2022/07/16 06:51:45;;;;;;;3.70;2.75;;;19.20;56.30;;;;;;5051102;28;20045;-62
2022/07/16 06:54:11;;;;;;;2.80;2.40;;;19.30;56.20;;;;;;5050470;28;20071;-63
2022/07/16 06:56:36;;;;;;;2.50;2.10;;;19.50;56.10;;;;;;5051911;28;20469;-63
2022/07/16 06:59:02;;;;;;;3.63;2.30;;;19.60;55.80;;;;;;5053265;28;20048;-63
2022/07/16 07:01:28;;;;;;;2.50;1.83;;;19.70;55.40;;;;;;5051027;28;20037;-63
2022/07/16 07:03:54;;;;;;;2.63;2.28;;;19.70;55.20;;;;;;5051863;28;20047;-63
2022/07/16 07:06:20;;;;;;;3.30;2.17;;;19.80;54.90;;;;;;5053359;28;20041;-63
2022/07/16 07:08:45;;;;;;;3.60;2.22;;;19.90;54.80;;;;;;5052465;28;20041;-61
2022/07/16 07:11:11;;;;;;;3.83;1.98;;;20.00;54.60;;;;;;5052186;28;20412;-62
2022/07/16 07:13:38;;;;;;;2.05;1.95;;;20.10;54.30;;;;;;5053864;28;20129;-62
2022/07/16 07:16:04;;;;;;;2.22;1.60;;;20.20;53.90;;;;;;5054405;28;20059;-61
2022/07/16 07:18:30;;;;;;;5.50;2.00;;;20.20;53.60;;;;;;5051393;28;20036;-63
2022/07/16 07:20:56;;;;;;;2.30;1.90;;;20.40;53.30;;;;;;5054274;28;20025;-62
2022/07/16 07:23:22;;;;;;;2.35;1.88;;;20.40;53.30;;;;;;5049302;28;20036;-62
2022/07/16 07:25:48;;;;;;;3.60;2.22;;;20.60;53.10;;;;;;5052684;28;20106;-61
2022/07/16 07:28:14;;;;;;;1.80;1.70;;;20.60;52.40;;;;;;5053188;28;20056;-62
2022/07/16 07:30:40;;;;;;;3.00;1.80;;;20.70;52.60;;;;;;5058505;28;20033;-63
2022/07/16 07:33:06;;;;;;;2.90;2.08;;;20.80;52.40;;;;;;5058124;28;20036;-63
2022/07/16 07:35:32;;;;;;;117.13;6.05;;;20.90;52.20;;;;;;5058814;28;20029;-63
2022/07/16 07:37:58;;;;;;;3.30;2.10;;;21.00;52.00;;;;;;5059576;28;20037;-61
2022/07/16 07:40:23;;;;;;;6.05;2.20;;;21.10;52.00;;;;;;5056940;28;20508;-59
2022/07/16 07:42:49;;;;;;;6.97;2.58;;;21.10;51.90;;;;;;5057204;28;20390;-62
2022/07/16 07:45:15;;;;;;;2.55;2.08;;;21.20;51.50;;;;;;5056600;28;20029;-64
2022/07/16 07:47:40;;;;;;;2.80;1.83;;;21.30;51.00;;;;;;5059917;28;20423;-62
2022/07/16 07:50:07;;;;;;;2.90;1.95;;;21.40;50.80;;;;;;5057870;28;20059;-62
2022/07/16 07:52:34;;;;;;;2.90;1.83;;;21.50;50.70;;;;;;5057834;28;20029;-63
2022/07/16 07:54:59;;;;;;;2.95;2.10;;;21.60;50.50;;;;;;5059269;28;20040;-61
2022/07/16 07:57:25;;;;;;;3.78;1.90;;;21.70;50.30;;;;;;5059344;28;20025;-62
2022/07/16 07:59:51;;;;;;;2.00;1.80;;;21.80;50.00;;;;;;5058996;28;20036;-62
2022/07/16 08:02:16;;;;;;;2.88;1.75;;;21.90;49.70;;;;;;5058618;28;20423;-62
2022/07/16 08:04:42;;;;;;;3.17;1.88;;;22.00;48.80;;;;;;5055680;28;20451;-63
2022/07/16 08:07:09;;;;;;;3.50;1.92;;;22.10;47.90;;;;;;5050894;28;20439;-62
2022/07/16 08:09:34;;;;;;;3.65;1.70;;;22.10;47.90;;;;;;5056966;28;20044;-60
2022/07/16 08:12:00;;;;;;;2.22;1.83;;;22.20;47.70;;;;;;5056497;28;20041;-60
2022/07/16 08:14:26;;;;;;;2.58;1.90;;;22.20;47.20;;;;;;5056271;28;20300;-63
2022/07/16 08:16:51;;;;;;;4.80;1.80;;;22.30;47.40;;;;;;5056356;28;20447;-62
2022/07/16 08:19:17;;;;;;;1.98;1.48;;;22.40;47.40;;;;;;5056288;28;20061;-61
2022/07/16 08:21:43;;;;;;;2.67;1.67;;;22.40;47.20;;;;;;5053755;28;20036;-62
2022/07/16 08:26:52;;;;;;;2.75;1.80;;;22.60;46.70;;;;;;5054200;28;20044;-61
2022/07/16 08:29:18;;;;;;;3.08;1.90;;;22.70;46.90;;;;;;5055913;28;20040;-61
2022/07/16 08:31:43;;;;;;;1.88;1.63;;;22.80;47.00;;;;;;5058114;28;20041;-62
2022/07/16 08:34:09;;;;;;;2.33;1.73;;;22.90;47.00;;;;;;5057534;28;20036;-62
2022/07/16 08:36:36;;;;;;;4.28;1.83;;;23.00;46.70;;;;;;5057615;28;20037;-63
2022/07/16 08:39:02;;;;;;;1.90;1.70;;;23.10;46.60;;;;;;5058222;28;20044;-61
2022/07/16 08:41:29;;;;;;;2.72;1.70;;;23.30;46.20;;;;;;5057998;28;20492;-61
2022/07/16 08:43:55;;;;;;;3.95;1.40;;;23.40;46.00;;;;;;5056918;28;20692;-62
2022/07/16 08:46:21;;;;;;;1.95;1.77;;;23.50;45.90;;;;;;5057255;28;20062;-61
2022/07/16 08:48:48;;;;;;;3.42;1.80;;;23.60;45.60;;;;;;5057313;28;20075;-62
2022/07/16 08:51:20;;;;;;;1.92;1.75;;;23.80;45.20;;;;;;5057387;28;20127;-62
2022/07/16 08:53:47;;;;;;;3.55;1.77;;;23.90;44.80;;;;;;5056837;28;20040;-61
2022/07/16 08:56:12;;;;;;;23.67;2.42;;;24.00;45.00;;;;;;5060026;28;20634;-63
2022/07/16 08:58:39;;;;;;;3.03;1.83;;;24.10;44.80;;;;;;5056342;28;20120;-62
2022/07/16 09:01:04;;;;;;;3.30;2.00;;;24.20;44.60;;;;;;5056991;28;20036;-60
2022/07/16 09:03:30;;;;;;;3.13;1.95;;;24.40;44.50;;;;;;5055848;28;20028;-62
2022/07/16 09:05:56;;;;;;;2.95;1.70;;;24.40;44.10;;;;;;5057911;28;20500;-62
2022/07/16 09:08:21;;;;;;;4.90;2.00;;;24.60;44.00;;;;;;5058025;28;20039;-61
2022/07/16 09:10:47;;;;;;;1.80;1.70;;;24.60;44.00;;;;;;5050542;28;20059;-63
2022/07/16 09:13:13;;;;;;;4.50;1.83;;;24.70;43.90;;;;;;5058420;28;20036;-63
2022/07/16 09:15:43;;;;;;;3.40;1.95;;;24.80;43.90;;;;;;5057056;28;20037;-62
2022/07/16 09:18:10;;;;;;;2.95;1.77;;;24.90;43.40;;;;;;5054646;28;20044;-63
2022/07/16 09:20:38;;;;;;;2.25;1.73;;;25.00;43.20;;;;;;5055691;28;20164;-61
2022/07/16 09:23:04;;;;;;;4.10;1.70;;;25.20;43.00;;;;;;5055646;28;20131;-62
2022/07/16 09:25:29;;;;;;;3.78;1.88;;;25.30;43.10;;;;;;5054313;28;20116;-62
2022/07/16 09:28:00;;;;;;;3.60;1.98;;;25.40;42.40;;;;;;5058859;28;20075;-63
2022/07/16 09:30:27;;;;;;;2.47;1.92;;;25.40;41.30;;;;;;5054446;28;20347;-63
2022/07/16 09:32:53;;;;;;;4.97;2.20;;;25.40;42.00;;;;;;5056487;28;20107;-61
2022/07/16 09:35:18;;;;;;;4.97;2.10;;;25.40;41.30;;;;;;5055361;28;20112;-61
2022/07/16 09:37:56;;;;;;;2.13;1.90;;;25.40;41.10;;;;;;5055724;28;20033;-61
2022/07/16 09:40:34;;;;;;;3.60;2.10;;;25.40;40.80;;;;;;5057081;28;20052;-63
2022/07/16 09:43:01;;;;;;;2.25;2.03;;;25.40;40.80;;;;;;5057773;28;20022;-62
2022/07/16 09:45:27;;;;;;;7.88;1.98;;;25.50;42.10;;;;;;5055958;28;20039;-60
2022/07/16 09:47:52;;;;;;;3.20;2.08;;;25.50;41.60;;;;;;5056092;28;20032;-62
2022/07/16 09:50:18;;;;;;;3.10;2.13;;;25.60;40.80;;;;;;5056667;28;20031;-62
2022/07/16 09:52:44;;;;;;;4.25;2.08;;;25.60;39.60;;;;;;5054174;28;20040;-64
2022/07/16 09:55:09;;;;;;;3.13;2.00;;;25.70;39.60;;;;;;5056761;28;20035;-66
2022/07/16 09:57:36;;;;;;;2.38;1.90;;;25.70;39.90;;;;;;5052105;28;20119;-62
2022/07/16 10:00:08;;;;;;;2.20;2.00;;;25.80;39.80;;;;;;5055603;28;20532;-61
2022/07/16 10:02:34;;;;;;;2.35;2.03;;;25.80;39.10;;;;;;5054726;28;20123;-62
2022/07/16 10:05:00;;;;;;;2.47;2.00;;;25.90;39.50;;;;;;5053443;28;20029;-62
2022/07/16 10:07:26;;;;;;;2.13;1.92;;;26.00;39.10;;;;;;5053525;28;20040;-63
2022/07/16 10:09:52;;;;;;;3.00;1.80;;;26.00;38.90;;;;;;5053514;28;20036;-62
2022/07/16 10:12:20;;;;;;;2.50;2.13;;;26.10;38.90;;;;;;5054667;28;20185;-62
2022/07/16 10:14:52;;;;;;;2.20;2.00;;;26.10;38.60;;;;;;5056992;28;20036;-59
2022/07/16 10:17:22;;;;;;;2.17;1.98;;;26.10;38.80;;;;;;5053713;28;20037;-60
2022/07/16 10:19:58;;;;;;;2.05;1.60;;;26.20;38.90;;;;;;5054270;28;20511;-61
2022/07/16 10:22:33;;;;;;;2.60;1.90;;;26.30;38.40;;;;;;5055931;28;20044;-61
2022/07/16 10:24:59;;;;;;;2.17;1.90;;;26.40;38.60;;;;;;5056722;28;20041;-61
2022/07/16 10:27:32;;;;;;;2.72;2.30;;;26.50;39.20;;;;;;5054669;28;20048;-62
2022/07/16 10:30:21;;;;;;;3.10;2.20;;;26.60;37.50;;;;;;5054779;28;20052;-63
2022/07/16 10:33:09;;;;;;;2.53;2.10;;;26.60;36.40;;;;;;5054505;28;20432;-63
2022/07/16 10:35:38;;;;;;;3.67;2.08;;;26.60;36.50;;;;;;5052933;28;20045;-63
2022/07/16 10:38:07;;;;;;;3.00;1.83;;;26.60;37.40;;;;;;5054633;28;20041;-61
2022/07/16 10:40:36;;;;;;;2.22;2.00;;;26.50;37.80;;;;;;5054328;28;20033;-62
2022/07/16 10:43:20;;;;;;;5.57;1.80;;;26.50;38.40;;;;;;5051180;28;20028;-60
2022/07/16 10:45:51;;;;;;;2.10;1.90;;;26.60;37.80;;;;;;5055428;28;20044;-62
2022/07/16 10:48:18;;;;;;;6.43;1.92;;;26.70;38.20;;;;;;5056012;28;20071;-63
2022/07/16 10:51:19;;;;;;;2.65;2.45;;;26.80;37.90;;;;;;5056520;28;22218;-63
2022/07/16 10:53:57;;;;;;;3.63;2.15;;;26.90;37.60;;;;;;5058403;28;20036;-62
2022/07/16 10:56:48;;;;;;;2.45;1.90;;;26.90;37.90;;;;;;5056578;28;20036;-62
2022/07/16 10:59:17;;;;;;;2.95;2.28;;;27.00;37.70;;;;;;5056520;28;20036;-63
2022/07/16 11:01:44;;;;;;;2.95;2.10;;;27.10;37.70;;;;;;5053438;28;20386;-63
2022/07/16 11:04:11;;;;;;;4.50;1.90;;;27.10;37.20;;;;;;5057613;28;20124;-63
2022/07/16 11:06:39;;;;;;;2.53;1.98;;;27.20;37.50;;;;;;5059871;28;20078;-64
2022/07/16 11:09:07;;;;;;;2.35;2.15;;;27.20;37.20;;;;;;5059127;28;20044;-63
2022/07/16 11:11:34;;;;;;;3.38;1.67;;;27.30;36.70;;;;;;5060202;28;20041;-63
2022/07/16 11:14:01;;;;;;;2.85;2.05;;;27.30;37.20;;;;;;5059111;28;20036;-64
2022/07/16 11:16:26;;;;;;;2.10;1.95;;;27.30;36.60;;;;;;5060877;28;20059;-60
2022/07/16 11:18:52;;;;;;;3.70;2.00;;;27.30;36.60;;;;;;5060262;28;20501;-62
2022/07/16 11:21:18;;;;;;;2.42;1.90;;;27.30;36.70;;;;;;5057217;28;20067;-63
2022/07/16 11:23:55;;;;;;;2.20;2.00;;;27.40;36.80;;;;;;5060552;28;20066;-63
2022/07/16 11:26:22;;;;;;;2.13;1.90;;;27.40;36.40;;;;;;5058186;28;20044;-63
2022/07/16 11:29:04;;;;;;;1.85;1.73;;;27.50;36.70;;;;;;5058783;28;20033;-63
2022/07/16 11:31:33;;;;;;;3.17;1.80;;;27.60;36.70;;;;;;5060355;28;20052;-63
2022/07/16 11:34:02;;;;;;;1.77;1.63;;;27.70;36.90;;;;;;5059104;28;20032;-63
2022/07/16 11:36:33;;;;;;;3.63;2.10;;;27.70;36.80;;;;;;5058478;28;20080;-63
2022/07/16 11:39:04;;;;;;;3.42;1.98;;;27.80;36.70;;;;;;5060003;28;20086;-63
2022/07/16 11:41:35;;;;;;;4.18;1.70;;;27.80;36.20;;;;;;5060735;28;20037;-64
2022/07/16 11:44:08;;;;;;;2.33;1.98;;;27.90;36.30;;;;;;5059142;28;20112;-63
2022/07/16 11:46:46;;;;;;;2.25;1.80;;;27.90;37.10;;;;;;5064460;28;20191;-62
2022/07/16 11:49:20;;;;;;;4.60;2.20;;;28.00;36.00;;;;;;5056464;28;20056;-61
2022/07/16 11:51:46;;;;;;;2.35;2.10;;;28.10;36.30;;;;;;5059119;28;20496;-61
2022/07/16 11:54:12;;;;;;;2.80;1.90;;;28.10;36.00;;;;;;5058299;28;20036;-62
2022/07/16 11:56:39;;;;;;;2.35;2.15;;;28.10;36.10;;;;;;5058148;28;20082;-62
2022/07/16 11:59:16;;;;;;;2.95;2.05;;;28.10;36.00;;;;;;5059348;28;20121;-60
2022/07/16 12:01:41;;;;;;;3.70;1.90;;;28.10;35.10;;;;;;5058498;28;20477;-63
2022/07/16 12:04:07;;;;;;;14.07;2.65;;;28.10;35.90;;;;;;5057909;28;20123;-61
2022/07/16 12:06:34;;;;;;;1.85;1.70;;;28.10;34.80;;;;;;5057729;28;20036;-63
2022/07/16 12:09:00;;;;;;;2.25;1.75;;;28.10;34.40;;;;;;5057406;28;20036;-63
2022/07/16 12:11:31;;;;;;;3.05;1.90;;;28.10;34.60;;;;;;5058804;28;20519;-63
2022/07/16 12:13:57;;;;;;;3.47;1.63;;;28.10;34.60;;;;;;5059581;28;20113;-62
2022/07/16 12:16:23;;;;;;;3.20;2.20;;;28.00;34.80;;;;;;5058358;28;20028;-61
2022/07/16 12:19:16;;;;;;;2.20;2.00;;;28.00;34.10;;;;;;5059454;28;20520;-61
2022/07/16 12:21:41;;;;;;;2.97;1.88;;;28.00;34.20;;;;;;5057382;28;20052;-62
2022/07/16 12:24:08;;;;;;;2.40;2.20;;;28.00;35.00;;;;;;5060268;28;20056;-62
2022/07/16 12:26:39;;;;;;;2.03;1.90;;;28.00;34.70;;;;;;5057814;28;20128;-62
2022/07/16 12:29:08;;;;;;;1.98;1.70;;;28.00;33.90;;;;;;5058721;28;20504;-60
2022/07/16 12:31:35;;;;;;;3.85;2.20;;;28.00;34.30;;;;;;5056215;28;20538;-61
2022/07/16 12:34:02;;;;;;;7.40;2.22;;;28.00;33.80;;;;;;5056733;28;20045;-63
2022/07/16 12:36:32;;;;;;;7.93;1.92;;;28.00;34.10;;;;;;5058346;28;20043;-62
2022/07/16 12:39:02;;;;;;;2.58;1.73;;;27.90;33.60;;;;;;5058278;28;20120;-64
2022/07/16 12:41:39;;;;;;;1.75;1.50;;;27.90;33.20;;;;;;5059889;28;20036;-61
2022/07/16 12:44:05;;;;;;;1.80;1.70;;;27.90;33.20;;;;;;5058322;28;20385;-61
2022/07/16 12:46:37;;;;;;;1.77;1.65;;;27.80;33.30;;;;;;5057419;28;20052;-62
2022/07/16 12:49:06;;;;;;;2.55;1.58;;;27.80;33.40;;;;;;5051569;28;20037;-61
2022/07/16 12:51:35;;;;;;;3.15;1.42;;;27.90;33.00;;;;;;5054802;28;20523;-62
2022/07/16 12:54:02;;;;;;;6.13;1.48;;;27.90;32.60;;;;;;5056900;28;20400;-60